Time;durP1;ratioP1;P1;durP2;ratioP2;P2;SDS_P1;SDS_P2;PMS_P1;PMS_P2;Temp;Humidity;BMP_temperature;BMP_pressure;BME280_temperature;BME280_humidity;BME280_pressure;Samples;Min_cycle;Max_cycle;Signal;HPM_P1;HPM_P2
2022/05/17 00:00:22;;;;;;;247.90;120.93;;;;;;;;;;5014142;28;20053;-83
2022/05/17 00:03:08;;;;;;;74.57;36.08;;;;;;;;;;5019923;28;20050;-82
2022/05/17 00:05:53;;;;;;;83.28;40.45;;;;;;;;;;5020711;28;20046;-83
2022/05/17 00:08:39;;;;;;;47.78;25.25;;;;;;;;;;5013510;28;20424;-83
2022/05/17 00:11:26;;;;;;;29.08;15.98;;;;;;;;;;5013589;28;20401;-83
2022/05/17 00:14:12;;;;;;;25.40;14.15;;;;;;;;;;5020621;28;20384;-83
2022/05/17 00:16:58;;;;;;;22.80;10.05;;;;;;;;;;5015491;28;20042;-81
2022/05/17 00:19:44;;;;;;;13.57;7.15;;;;;;;;;;5017748;28;20050;-81
2022/05/17 00:22:29;;;;;;;13.15;6.60;;;;;;;;;;5017785;28;20050;-83
2022/05/17 00:25:16;;;;;;;8.98;4.78;;;;;;;;;;5024235;28;20045;-81
2022/05/17 00:28:03;;;;;;;6.47;4.03;;;;;;;;;;5024449;28;20049;-81
2022/05/17 00:30:49;;;;;;;9.23;4.13;;;;;;;;;;5017255;28;20404;-81
2022/05/17 00:33:35;;;;;;;10.55;4.97;;;;;;;;;;5017359;28;20493;-81
2022/05/17 00:36:22;;;;;;;7.70;4.70;;;;;;;;;;5017598;28;20042;-80
2022/05/17 00:39:08;;;;;;;10.52;4.55;;;;;;;;;;5009106;28;20046;-83
2022/05/17 00:41:53;;;;;;;13.98;6.15;;;;;;;;;;5017110;28;20408;-82
2022/05/17 00:44:45;;;;;;;10.57;5.05;;;;;;;;;;5023556;28;20480;-82
2022/05/17 00:47:42;;;;;;;7.40;3.60;;;;;;;;;;5017293;28;20042;-82
2022/05/17 00:50:30;;;;;;;4.03;2.72;;;;;;;;;;5016906;28;20046;-81
2022/05/17 00:53:18;;;;;;;5.57;3.05;;;;;;;;;;5009198;28;20041;-82
2022/05/17 00:56:11;;;;;;;7.28;3.08;;;;;;;;;;5017292;28;20038;-82
2022/05/17 00:59:00;;;;;;;9.25;3.05;;;;;;;;;;5016815;28;20049;-82
2022/05/17 01:01:46;;;;;;;7.78;3.35;;;;;;;;;;5023846;28;20389;-81
2022/05/17 01:04:32;;;;;;;4.38;2.83;;;;;;;;;;5023556;28;20042;-82
2022/05/17 01:07:22;;;;;;;7.40;3.50;;;;;;;;;;5017133;28;20049;-81
2022/05/17 01:10:07;;;;;;;5.40;3.13;;;;;;;;;;5016771;28;20046;-82
2022/05/17 01:16:11;;;;;;;4.90;2.97;;;;;;;;;;5002036;28;20050;-82
2022/05/17 01:18:56;;;;;;;5.15;3.25;;;;;;;;;;5016398;28;20045;-82
2022/05/17 01:21:42;;;;;;;4.20;3.13;;;;;;;;;;5016982;28;20046;-82
2022/05/17 01:24:27;;;;;;;8.45;3.22;;;;;;;;;;5016972;28;20042;-81
2022/05/17 01:27:19;;;;;;;8.57;3.13;;;;;;;;;;5015979;28;20045;-83
2022/05/17 01:30:06;;;;;;;4.78;3.05;;;;;;;;;;5023039;28;20405;-82
2022/05/17 01:32:52;;;;;;;6.10;3.47;;;;;;;;;;5016363;28;20466;-82
2022/05/17 01:35:36;;;;;;;6.00;3.40;;;;;;;;;;5022848;28;20050;-82
2022/05/17 01:38:21;;;;;;;8.65;3.15;;;;;;;;;;5023147;28;20045;-82
2022/05/17 01:41:07;;;;;;;6.03;3.10;;;;;;;;;;5016078;28;20034;-82
2022/05/17 01:43:53;;;;;;;5.68;3.10;;;;;;;;;;5016429;28;20049;-82
2022/05/17 01:46:38;;;;;;;6.03;3.55;;;;;;;;;;5023006;28;20053;-82
2022/05/17 01:49:24;;;;;;;8.40;3.95;;;;;;;;;;5016519;28;20050;-82
2022/05/17 01:52:10;;;;;;;9.68;4.15;;;;;;;;;;5022805;28;20058;-82
2022/05/17 01:54:56;;;;;;;6.40;3.97;;;;;;;;;;5022518;28;20045;-83
2022/05/17 01:57:41;;;;;;;12.30;4.20;;;;;;;;;;5016169;28;20477;-83
2022/05/17 02:00:27;;;;;;;8.45;4.50;;;;;;;;;;5016143;28;20046;-83
2022/05/17 02:03:13;;;;;;;7.55;3.70;;;;;;;;;;5022878;28;20053;-83
2022/05/17 02:05:58;;;;;;;5.35;4.05;;;;;;;;;;5022815;28;20050;-83
2022/05/17 02:08:44;;;;;;;7.13;4.10;;;;;;;;;;5015378;28;20405;-82
2022/05/17 02:11:29;;;;;;;5.90;3.08;;;;;;;;;;5024233;28;20033;-82
2022/05/17 02:14:15;;;;;;;6.53;3.35;;;;;;;;;;5020748;28;20477;-82
2022/05/17 02:17:02;;;;;;;7.90;3.47;;;;;;;;;;5017703;28;20054;-81
2022/05/17 02:19:48;;;;;;;6.53;3.33;;;;;;;;;;5024420;28;20042;-82
2022/05/17 02:22:34;;;;;;;6.00;3.58;;;;;;;;;;5015211;28;20050;-82
2022/05/17 02:25:19;;;;;;;9.98;3.65;;;;;;;;;;5022281;28;20054;-83
2022/05/17 02:28:10;;;;;;;4.20;3.10;;;;;;;;;;5007025;28;20054;-83
2022/05/17 02:30:56;;;;;;;5.60;3.45;;;;;;;;;;5021619;28;20041;-82
2022/05/17 02:33:41;;;;;;;6.60;3.67;;;;;;;;;;5015310;28;20046;-82
2022/05/17 02:36:27;;;;;;;9.40;4.20;;;;;;;;;;5014854;28;20046;-82
2022/05/17 02:39:12;;;;;;;7.20;3.45;;;;;;;;;;5021302;28;20046;-83
2022/05/17 02:41:58;;;;;;;6.47;3.85;;;;;;;;;;5014894;28;20162;-82
2022/05/17 02:44:43;;;;;;;6.15;3.38;;;;;;;;;;5014529;28;20041;-82
2022/05/17 02:47:29;;;;;;;4.55;3.30;;;;;;;;;;5015066;28;20050;-82
2022/05/17 02:50:15;;;;;;;7.78;3.22;;;;;;;;;;5006295;28;20057;-82
2022/05/17 02:53:01;;;;;;;6.15;3.08;;;;;;;;;;5021522;28;20057;-82
2022/05/17 02:55:47;;;;;;;6.05;3.53;;;;;;;;;;5014985;28;20416;-82
2022/05/17 02:58:33;;;;;;;6.95;3.55;;;;;;;;;;5020776;28;20046;-83
2022/05/17 03:01:18;;;;;;;5.28;3.17;;;;;;;;;;5006483;28;20049;-83
2022/05/17 03:04:03;;;;;;;5.93;3.00;;;;;;;;;;5014456;28;20046;-82
2022/05/17 03:06:48;;;;;;;5.28;3.10;;;;;;;;;;5021407;28;20065;-83
2022/05/17 03:09:33;;;;;;;5.03;3.08;;;;;;;;;;5014952;28;20469;-82
2022/05/17 03:12:19;;;;;;;6.15;3.35;;;;;;;;;;5014286;28;20481;-82
2022/05/17 03:15:06;;;;;;;7.03;3.13;;;;;;;;;;5014836;28;20046;-82
2022/05/17 03:17:51;;;;;;;5.43;3.05;;;;;;;;;;5020791;28;20049;-82
2022/05/17 03:20:37;;;;;;;6.63;3.47;;;;;;;;;;5021301;28;20045;-82
2022/05/17 03:23:22;;;;;;;11.02;3.42;;;;;;;;;;5014924;28;20049;-83
2022/05/17 03:26:08;;;;;;;10.20;3.13;;;;;;;;;;5014115;28;20050;-83
2022/05/17 03:28:54;;;;;;;12.43;3.58;;;;;;;;;;5020863;28;20054;-82
2022/05/17 03:31:39;;;;;;;5.97;3.70;;;;;;;;;;5020839;28;20397;-83
2022/05/17 03:34:25;;;;;;;5.45;3.47;;;;;;;;;;5014317;28;20045;-83
2022/05/17 03:37:11;;;;;;;10.80;3.90;;;;;;;;;;5020875;28;20050;-83
2022/05/17 03:39:56;;;;;;;8.27;3.50;;;;;;;;;;5020492;28;20396;-84
2022/05/17 03:42:41;;;;;;;8.00;3.65;;;;;;;;;;5014391;28;20050;-83
2022/05/17 03:45:27;;;;;;;8.77;3.70;;;;;;;;;;5014387;28;20045;-83
2022/05/17 03:48:13;;;;;;;9.43;3.40;;;;;;;;;;5044388;28;20439;-83
2022/05/17 03:50:58;;;;;;;5.72;3.28;;;;;;;;;;5060101;28;20052;-82
2022/05/17 03:53:44;;;;;;;7.13;3.50;;;;;;;;;;5060440;28;20044;-83
2022/05/17 03:56:30;;;;;;;7.45;3.78;;;;;;;;;;5060299;28;20045;-83
2022/05/17 03:59:15;;;;;;;9.50;4.05;;;;;;;;;;5053659;28;20372;-82
2022/05/17 04:02:02;;;;;;;10.75;5.10;;;;;;;;;;5060090;28;20052;-83
2022/05/17 04:04:50;;;;;;;10.85;6.43;;;;;;;;;;5060355;28;20045;-84
2022/05/17 04:07:36;;;;;;;9.63;5.53;;;;;;;;;;5053123;28;20045;-83
2022/05/17 04:10:22;;;;;;;9.55;4.97;;;;;;;;;;5060120;28;20041;-82
2022/05/17 04:13:07;;;;;;;16.23;5.22;;;;;;;;;;5044786;28;20045;-83
2022/05/17 04:15:52;;;;;;;10.48;4.63;;;;;;;;;;5050451;28;20033;-83
2022/05/17 04:18:37;;;;;;;9.88;4.78;;;;;;;;;;5027913;28;20050;-83
2022/05/17 04:21:23;;;;;;;7.65;5.10;;;;;;;;;;5017935;28;20049;-82
2022/05/17 04:24:08;;;;;;;9.52;4.40;;;;;;;;;;5033525;28;20053;-82
2022/05/17 04:26:54;;;;;;;12.35;4.65;;;;;;;;;;5033459;28;20500;-83
2022/05/17 04:29:41;;;;;;;9.70;4.47;;;;;;;;;;5033077;28;20396;-83
2022/05/17 04:32:26;;;;;;;9.45;4.53;;;;;;;;;;5024469;28;20385;-84
2022/05/17 04:35:13;;;;;;;7.07;4.63;;;;;;;;;;5026243;28;20046;-84
2022/05/17 04:37:59;;;;;;;15.95;4.28;;;;;;;;;;5039919;28;20049;-82
2022/05/17 04:40:44;;;;;;;10.90;3.58;;;;;;;;;;5039955;28;20469;-85
2022/05/17 04:43:30;;;;;;;9.93;3.97;;;;;;;;;;5025063;28;20392;-84
2022/05/17 04:46:15;;;;;;;7.75;3.80;;;;;;;;;;5040162;28;20049;-85
2022/05/17 04:49:01;;;;;;;10.63;4.07;;;;;;;;;;5056589;28;20052;-86
2022/05/17 04:51:53;;;;;;;14.25;4.78;;;;;;;;;;5018162;28;20057;-83
2022/05/17 04:54:39;;;;;;;13.02;4.53;;;;;;;;;;5063557;28;20515;-84
2022/05/17 04:57:25;;;;;;;14.18;4.53;;;;;;;;;;5063897;28;20045;-85
2022/05/17 05:00:15;;;;;;;6.88;4.40;;;;;;;;;;5034947;28;20049;-86
2022/05/17 05:03:01;;;;;;;10.77;4.00;;;;;;;;;;5032696;28;20492;-86
2022/05/17 05:05:48;;;;;;;12.18;4.57;;;;;;;;;;5030190;28;20057;-84
2022/05/17 05:08:34;;;;;;;7.38;4.80;;;;;;;;;;5036310;28;20041;-84
2022/05/17 05:11:19;;;;;;;13.63;4.85;;;;;;;;;;5042457;28;20393;-85
2022/05/17 05:14:05;;;;;;;18.15;5.03;;;;;;;;;;5042126;28;20049;-84
2022/05/17 05:16:51;;;;;;;10.40;4.75;;;;;;;;;;5042049;28;20435;-84
2022/05/17 05:19:36;;;;;;;8.82;4.78;;;;;;;;;;5036098;28;20037;-84
2022/05/17 05:22:21;;;;;;;8.13;4.13;;;;;;;;;;5036734;28;20049;-84
2022/05/17 05:25:07;;;;;;;8.45;4.15;;;;;;;;;;5036151;28;20042;-84
2022/05/17 05:27:53;;;;;;;9.18;4.82;;;;;;;;;;5043328;28;20411;-85
2022/05/17 05:30:39;;;;;;;12.48;5.20;;;;;;;;;;5036297;28;20057;-84
2022/05/17 05:33:24;;;;;;;11.75;5.80;;;;;;;;;;5036272;28;20472;-85
2022/05/17 05:36:10;;;;;;;16.98;7.15;;;;;;;;;;5021286;28;20045;-85
2022/05/17 05:38:56;;;;;;;14.15;5.90;;;;;;;;;;5035489;28;20037;-85
2022/05/17 05:41:41;;;;;;;16.83;5.60;;;;;;;;;;5021185;28;20046;-85
2022/05/17 05:44:26;;;;;;;14.35;5.78;;;;;;;;;;5042573;28;20045;-85
2022/05/17 05:47:12;;;;;;;16.02;5.47;;;;;;;;;;5042704;28;20049;-85
2022/05/17 05:49:57;;;;;;;14.18;5.53;;;;;;;;;;5042865;28;20049;-85
2022/05/17 05:52:44;;;;;;;16.30;5.72;;;;;;;;;;5041994;28;20392;-86
2022/05/17 05:55:30;;;;;;;9.93;4.80;;;;;;;;;;5042547;28;20049;-83
2022/05/17 05:58:16;;;;;;;9.10;5.28;;;;;;;;;;5035549;28;20041;-84
2022/05/17 06:01:01;;;;;;;13.73;5.05;;;;;;;;;;5035570;28;20396;-84
2022/05/17 06:03:47;;;;;;;10.10;4.22;;;;;;;;;;5035596;28;20049;-85
2022/05/17 06:06:32;;;;;;;10.38;4.80;;;;;;;;;;5035021;28;20057;-85
2022/05/17 06:09:18;;;;;;;7.35;3.95;;;;;;;;;;5035807;28;20058;-85
2022/05/17 06:12:04;;;;;;;10.07;4.07;;;;;;;;;;5043357;28;20037;-84
2022/05/17 06:14:49;;;;;;;16.33;4.65;;;;;;;;;;5050688;28;20488;-85
2022/05/17 06:17:38;;;;;;;13.07;4.57;;;;;;;;;;5035440;28;20037;-83
2022/05/17 06:20:24;;;;;;;9.02;4.45;;;;;;;;;;5054750;28;20049;-84
2022/05/17 06:23:10;;;;;;;13.13;4.90;;;;;;;;;;5056674;28;20056;-85
2022/05/17 06:25:57;;;;;;;14.02;4.40;;;;;;;;;;5061730;28;20084;-84
2022/05/17 06:28:43;;;;;;;10.50;4.20;;;;;;;;;;5054543;28;20045;-83
2022/05/17 06:31:28;;;;;;;8.68;4.30;;;;;;;;;;5061735;28;20049;-86
2022/05/17 06:34:14;;;;;;;11.18;4.93;;;;;;;;;;5054332;28;20041;-86
2022/05/17 06:36:58;;;;;;;10.48;3.92;;;;;;;;;;5061342;28;20480;-84
2022/05/17 06:39:45;;;;;;;10.02;3.97;;;;;;;;;;5054799;28;20052;-85
2022/05/17 06:42:32;;;;;;;12.82;4.55;;;;;;;;;;5054283;28;20041;-86
2022/05/17 06:45:17;;;;;;;9.02;4.22;;;;;;;;;;5055073;28;20044;-86
2022/05/17 06:48:04;;;;;;;9.52;4.40;;;;;;;;;;5054818;28;20045;-85
2022/05/17 06:50:48;;;;;;;16.30;3.67;;;;;;;;;;5054747;28;20061;-85
2022/05/17 06:53:34;;;;;;;10.32;3.83;;;;;;;;;;5046319;28;20053;-85
2022/05/17 06:56:20;;;;;;;13.73;3.85;;;;;;;;;;5054321;28;20492;-85
2022/05/17 06:59:06;;;;;;;10.52;3.90;;;;;;;;;;5054188;28;20040;-85
2022/05/17 07:01:52;;;;;;;10.05;3.60;;;;;;;;;;5054413;28;20480;-85
2022/05/17 07:04:38;;;;;;;11.88;4.07;;;;;;;;;;5061159;28;20053;-86
2022/05/17 07:07:24;;;;;;;6.50;3.40;;;;;;;;;;5054356;28;20045;-84
2022/05/17 07:13:16;;;;;;;8.32;3.90;;;;;;;;;;5046619;28;20053;-86
2022/05/17 07:16:02;;;;;;;6.63;3.47;;;;;;;;;;5060913;28;20404;-85
2022/05/17 07:18:48;;;;;;;9.80;3.35;;;;;;;;;;5046171;28;20045;-85
2022/05/17 07:21:33;;;;;;;36.40;4.05;;;;;;;;;;5054142;28;20040;-85
2022/05/17 07:24:19;;;;;;;10.70;3.08;;;;;;;;;;5062335;28;20045;-84
2022/05/17 07:27:06;;;;;;;12.60;3.40;;;;;;;;;;5058389;28;20045;-85
2022/05/17 07:29:51;;;;;;;6.55;3.28;;;;;;;;;;5058108;28;20045;-81
2022/05/17 07:32:38;;;;;;;9.55;3.22;;;;;;;;;;5040993;28;20499;-81
2022/05/17 07:35:23;;;;;;;8.02;3.38;;;;;;;;;;5061211;28;20052;-87
2022/05/17 07:38:08;;;;;;;27.92;3.88;;;;;;;;;;5053527;28;20484;-84
2022/05/17 07:40:54;;;;;;;9.95;3.35;;;;;;;;;;5060518;28;20048;-83
2022/05/17 07:43:39;;;;;;;12.15;3.80;;;;;;;;;;5053345;28;20060;-84
2022/05/17 07:46:25;;;;;;;9.27;3.95;;;;;;;;;;5053533;28;20045;-84
2022/05/17 07:49:10;;;;;;;15.77;4.22;;;;;;;;;;5060563;28;20391;-81
2022/05/17 07:52:03;;;;;;;20.58;4.88;;;;;;;;;;5053331;28;20057;-84
2022/05/17 07:54:49;;;;;;;11.85;4.57;;;;;;;;;;5053295;28;20483;-82
2022/05/17 07:57:34;;;;;;;17.65;4.82;;;;;;;;;;5053498;28;20395;-84
2022/05/17 08:00:19;;;;;;;16.17;4.45;;;;;;;;;;5053546;28;20045;-83
2022/05/17 08:03:06;;;;;;;14.55;3.95;;;;;;;;;;5053518;28;20041;-81
2022/05/17 08:05:52;;;;;;;12.95;4.32;;;;;;;;;;5044945;28;20471;-82
2022/05/17 08:08:38;;;;;;;9.77;4.32;;;;;;;;;;5045373;28;20048;-82
2022/05/17 08:11:24;;;;;;;13.48;4.30;;;;;;;;;;5053569;28;20388;-82
2022/05/17 08:14:09;;;;;;;14.77;3.70;;;;;;;;;;5053380;28;20045;-85
2022/05/17 08:16:56;;;;;;;7.50;4.10;;;;;;;;;;5059000;28;20404;-84
2022/05/17 08:19:42;;;;;;;10.95;3.80;;;;;;;;;;5058544;28;20045;-82
2022/05/17 08:22:28;;;;;;;10.25;4.18;;;;;;;;;;5056758;28;20060;-81
2022/05/17 08:28:21;;;;;;;9.27;4.07;;;;;;;;;;5053421;28;20052;-84
2022/05/17 08:31:07;;;;;;;7.95;3.70;;;;;;;;;;5053235;28;20053;-82
2022/05/17 08:33:52;;;;;;;9.80;4.28;;;;;;;;;;5059261;28;20049;-82
2022/05/17 08:36:37;;;;;;;11.65;4.25;;;;;;;;;;5051278;28;20049;-82
2022/05/17 08:39:22;;;;;;;8.90;4.00;;;;;;;;;;5060985;28;20049;-83
2022/05/17 08:42:29;;;;;;;8.55;4.00;;;;;;;;;;5056825;28;20037;-81
2022/05/17 08:45:19;;;;;;;12.73;4.00;;;;;;;;;;5056879;28;20037;-80
2022/05/17 08:48:12;;;;;;;14.05;3.75;;;;;;;;;;5063232;28;20053;-83
2022/05/17 08:50:57;;;;;;;15.48;4.50;;;;;;;;;;5063570;28;20049;-85
2022/05/17 08:53:46;;;;;;;7.55;3.70;;;;;;;;;;5063126;28;20048;-82
2022/05/17 08:56:36;;;;;;;15.52;4.15;;;;;;;;;;5057014;28;20049;-84
2022/05/17 08:59:23;;;;;;;10.13;3.20;;;;;;;;;;5056737;28;20049;-85
2022/05/17 09:02:20;;;;;;;9.38;3.63;;;;;;;;;;5039213;28;20046;-82
2022/05/17 09:05:30;;;;;;;6.50;4.00;;;;;;;;;;5025475;28;20046;-84
2022/05/17 09:09:12;;;;;;;10.02;3.20;;;;;;;;;;5028146;28;20053;-82
2022/05/17 09:12:08;;;;;;;8.73;3.40;;;;;;;;;;4954124;28;20414;-84
2022/05/17 09:14:56;;;;;;;6.30;3.17;;;;;;;;;;4960683;28;20047;-82
2022/05/17 09:17:42;;;;;;;8.25;3.28;;;;;;;;;;5036466;28;20130;-84
2022/05/17 09:20:32;;;;;;;10.88;3.60;;;;;;;;;;5042960;28;20050;-83
2022/05/17 09:23:18;;;;;;;24.65;3.70;;;;;;;;;;5035499;28;20049;-82
2022/05/17 09:26:07;;;;;;;11.15;3.63;;;;;;;;;;5043185;28;20053;-84
2022/05/17 09:29:15;;;;;;;31.15;3.75;;;;;;;;;;5033527;28;20400;-81
2022/05/17 09:32:03;;;;;;;6.80;2.85;;;;;;;;;;5042921;28;20053;-86
2022/05/17 09:34:59;;;;;;;9.93;2.90;;;;;;;;;;5043114;28;20045;-85
2022/05/17 09:37:50;;;;;;;6.55;2.70;;;;;;;;;;5034607;28;20045;-84
2022/05/17 09:40:40;;;;;;;4.93;2.83;;;;;;;;;;5035732;28;20045;-83
2022/05/17 09:43:51;;;;;;;5.22;3.03;;;;;;;;;;5034562;28;20037;-82
2022/05/17 09:46:46;;;;;;;9.35;3.15;;;;;;;;;;5036261;28;20050;-84
2022/05/17 09:52:45;;;;;;;9.00;2.95;;;;;;;;;;5036427;28;20053;-82
2022/05/17 09:55:33;;;;;;;8.40;2.83;;;;;;;;;;5042609;28;20057;-83
2022/05/17 09:58:34;;;;;;;25.25;3.50;;;;;;;;;;5020743;28;20049;-82
2022/05/17 10:01:25;;;;;;;13.10;3.35;;;;;;;;;;5035973;28;20041;-83
2022/05/17 10:04:13;;;;;;;8.10;2.75;;;;;;;;;;5038389;28;20045;-82
2022/05/17 10:06:58;;;;;;;6.10;2.78;;;;;;;;;;5039347;28;20058;-81
2022/05/17 10:09:43;;;;;;;17.02;3.50;;;;;;;;;;5039799;28;20057;-80
2022/05/17 10:12:34;;;;;;;9.18;2.65;;;;;;;;;;5042547;28;20053;-84
2022/05/17 10:15:21;;;;;;;16.35;3.13;;;;;;;;;;5033097;28;20400;-82
2022/05/17 10:18:31;;;;;;;7.68;2.53;;;;;;;;;;5041252;28;20049;-84
2022/05/17 10:21:35;;;;;;;14.82;2.60;;;;;;;;;;5039717;28;20042;-85
2022/05/17 10:24:23;;;;;;;5.78;2.60;;;;;;;;;;5041276;28;20038;-83
2022/05/17 10:27:28;;;;;;;6.20;2.47;;;;;;;;;;5041629;28;20388;-82
2022/05/17 10:30:51;;;;;;;8.38;2.70;;;;;;;;;;5041525;28;20053;-84
2022/05/17 10:33:46;;;;;;;7.45;2.95;;;;;;;;;;5019552;28;20121;-83
2022/05/17 10:36:47;;;;;;;6.55;2.47;;;;;;;;;;5035422;28;20045;-85
2022/05/17 10:40:00;;;;;;;5.40;2.35;;;;;;;;;;5034573;28;20053;-81
2022/05/17 10:42:45;;;;;;;6.00;2.47;;;;;;;;;;5035276;28;20049;-80
2022/05/17 10:45:33;;;;;;;8.18;2.58;;;;;;;;;;5034526;28;20045;-82
2022/05/17 10:48:49;;;;;;;8.30;2.50;;;;;;;;;;5026365;28;20045;-82
2022/05/17 10:52:17;;;;;;;6.30;2.60;;;;;;;;;;5041620;28;20464;-82
2022/05/17 10:55:23;;;;;;;6.05;3.22;;;;;;;;;;5016822;28;20049;-82
2022/05/17 10:58:41;;;;;;;6.97;2.63;;;;;;;;;;5034137;28;20046;-83
2022/05/17 11:01:37;;;;;;;8.35;2.53;;;;;;;;;;5033415;28;20042;-84
2022/05/17 11:04:37;;;;;;;6.05;2.20;;;;;;;;;;5025685;28;20053;-82
2022/05/17 11:07:40;;;;;;;4.75;2.67;;;;;;;;;;5034529;28;20033;-83
2022/05/17 11:10:43;;;;;;;7.13;2.42;;;;;;;;;;5041200;28;20476;-81
2022/05/17 11:13:47;;;;;;;6.53;2.80;;;;;;;;;;5041265;28;20049;-81
2022/05/17 11:17:03;;;;;;;6.18;2.70;;;;;;;;;;5040830;28;20045;-79
2022/05/17 11:19:56;;;;;;;9.32;2.85;;;;;;;;;;5012334;28;20500;-80
2022/05/17 11:23:03;;;;;;;5.50;2.60;;;;;;;;;;5036663;28;20057;-78
2022/05/17 11:25:51;;;;;;;7.97;2.88;;;;;;;;;;5040385;28;20045;-79
2022/05/17 11:28:42;;;;;;;8.80;2.70;;;;;;;;;;5040796;28;20053;-79
2022/05/17 11:31:39;;;;;;;4.97;2.58;;;;;;;;;;5040643;28;20049;-79
2022/05/17 11:34:36;;;;;;;5.70;2.60;;;;;;;;;;5040943;28;20045;-79
2022/05/17 11:37:33;;;;;;;5.68;2.47;;;;;;;;;;5040889;28;20053;-79
2022/05/17 11:40:47;;;;;;;6.15;2.65;;;;;;;;;;5040022;28;20041;-77
2022/05/17 11:43:46;;;;;;;7.83;2.70;;;;;;;;;;5033948;28;20049;-78
2022/05/17 11:46:31;;;;;;;6.28;3.13;;;;;;;;;;5039924;28;20053;-80
2022/05/17 11:49:17;;;;;;;6.78;2.90;;;;;;;;;;5040582;28;20477;-79
2022/05/17 11:52:02;;;;;;;9.27;2.88;;;;;;;;;;5040095;28;20049;-80
2022/05/17 11:54:50;;;;;;;7.00;3.08;;;;;;;;;;5040565;28;20054;-80
2022/05/17 11:57:38;;;;;;;6.32;3.00;;;;;;;;;;5040718;28;20053;-80
2022/05/17 12:00:23;;;;;;;14.63;3.00;;;;;;;;;;5033343;28;20477;-78
2022/05/17 12:03:40;;;;;;;3.80;2.92;;;;;;;;;;5040174;28;20041;-79
2022/05/17 12:06:48;;;;;;;5.80;2.63;;;;;;;;;;5039950;28;20053;-78
2022/05/17 12:09:38;;;;;;;7.65;3.00;;;;;;;;;;5040247;28;20050;-79
2022/05/17 12:12:41;;;;;;;6.78;2.90;;;;;;;;;;5041653;28;20041;-79
2022/05/17 12:15:33;;;;;;;9.52;3.22;;;;;;;;;;5043888;28;20473;-77
2022/05/17 12:18:41;;;;;;;8.02;3.00;;;;;;;;;;5044106;28;20049;-78
2022/05/17 12:21:56;;;;;;;7.55;2.90;;;;;;;;;;5036847;28;20041;-78
2022/05/17 12:25:06;;;;;;;7.72;3.05;;;;;;;;;;5044284;28;20053;-78
2022/05/17 12:27:53;;;;;;;10.25;3.10;;;;;;;;;;5043860;28;20053;-79
2022/05/17 12:30:53;;;;;;;6.28;2.90;;;;;;;;;;5044076;28;20053;-79
2022/05/17 12:33:48;;;;;;;10.52;2.80;;;;;;;;;;5044266;28;20401;-80
2022/05/17 12:36:35;;;;;;;8.10;3.00;;;;;;;;;;5043656;28;20045;-79
2022/05/17 12:45:47;;;;;;;8.63;2.80;;;;;;;;;;5047192;28;20058;-81
2022/05/17 12:48:53;;;;;;;8.80;3.20;;;;;;;;;;5029685;28;20041;-81
2022/05/17 12:56:04;;;;;;;4.85;3.03;;;;;;;;;;4977853;28;20058;-80
2022/05/17 13:00:15;;;;;;;6.75;2.97;;;;;;;;;;4976487;28;20063;-79
2022/05/17 13:16:25;;;;;;;6.60;3.28;;;;;;;;;;4904963;29;20052;-81
2022/05/17 13:19:38;;;;;;;6.53;3.47;;;;;;;;;;4900885;29;20064;-81
2022/05/17 13:22:24;;;;;;;8.57;3.13;;;;;;;;;;4924946;28;20051;-80
2022/05/17 13:25:17;;;;;;;10.43;3.33;;;;;;;;;;4977798;28;20042;-80
2022/05/17 13:28:03;;;;;;;5.35;2.95;;;;;;;;;;5031548;28;20045;-81
2022/05/17 13:30:50;;;;;;;5.07;3.30;;;;;;;;;;5035814;28;20041;-80
2022/05/17 13:33:40;;;;;;;8.93;3.33;;;;;;;;;;5036372;28;20476;-80
2022/05/17 13:36:41;;;;;;;6.65;3.22;;;;;;;;;;5042630;28;20500;-81
2022/05/17 13:39:31;;;;;;;10.50;4.93;;;;;;;;;;5027129;28;20046;-79
2022/05/17 13:42:28;;;;;;;6.65;3.92;;;;;;;;;;5035837;28;20045;-79
2022/05/17 13:45:34;;;;;;;5.18;3.30;;;;;;;;;;5035151;28;20045;-80
2022/05/17 13:48:20;;;;;;;8.57;3.55;;;;;;;;;;5042616;28;20053;-78
2022/05/17 13:51:09;;;;;;;7.05;3.28;;;;;;;;;;5042301;28;20049;-78
2022/05/17 13:53:59;;;;;;;9.43;3.30;;;;;;;;;;5042630;28;20045;-80
2022/05/17 13:56:55;;;;;;;10.65;3.25;;;;;;;;;;5042243;28;20053;-79
2022/05/17 14:00:10;;;;;;;14.13;3.30;;;;;;;;;;5035161;28;20041;-78
2022/05/17 14:03:00;;;;;;;12.02;3.58;;;;;;;;;;5035614;28;20045;-79
2022/05/17 14:05:58;;;;;;;6.82;2.83;;;;;;;;;;5035190;28;20389;-80
2022/05/17 14:11:52;;;;;;;10.50;4.68;;;;;;;;;;5042017;28;20476;-80
2022/05/17 14:14:37;;;;;;;30.80;10.18;;;;;;;;;;5020281;28;20050;-82
2022/05/17 14:17:27;;;;;;;17.77;5.63;;;;;;;;;;5035083;28;20061;-81
2022/05/17 14:20:14;;;;;;;32.10;4.43;;;;;;;;;;5034706;28;20041;-83
2022/05/17 14:23:00;;;;;;;5.15;3.15;;;;;;;;;;5019968;28;20053;-80
2022/05/17 14:25:47;;;;;;;21.17;5.18;;;;;;;;;;5041793;28;20049;-78
2022/05/17 14:28:32;;;;;;;10.27;3.92;;;;;;;;;;5041562;28;20481;-81
2022/05/17 14:31:20;;;;;;;12.77;4.00;;;;;;;;;;5041430;28;20058;-81
2022/05/17 14:34:09;;;;;;;18.70;5.60;;;;;;;;;;5041350;28;20053;-82
2022/05/17 14:36:54;;;;;;;10.05;4.97;;;;;;;;;;5041655;28;20049;-81
2022/05/17 14:39:40;;;;;;;12.05;5.30;;;;;;;;;;5035023;28;20053;-81
2022/05/17 14:42:26;;;;;;;6.97;4.90;;;;;;;;;;5041246;28;20045;-81
2022/05/17 14:45:12;;;;;;;14.68;6.40;;;;;;;;;;5026432;28;20484;-80
2022/05/17 14:47:59;;;;;;;14.13;6.43;;;;;;;;;;5040980;28;20419;-82
2022/05/17 14:50:45;;;;;;;25.20;8.60;;;;;;;;;;5034342;28;20045;-84
2022/05/17 14:53:30;;;;;;;26.20;8.82;;;;;;;;;;5019791;28;20361;-82
2022/05/17 14:56:16;;;;;;;31.10;10.85;;;;;;;;;;5034335;28;20034;-82
2022/05/17 14:59:01;;;;;;;22.80;9.07;;;;;;;;;;5034538;28;20042;-83
2022/05/17 15:01:48;;;;;;;12.75;7.32;;;;;;;;;;5040663;28;20042;-83
2022/05/17 15:04:35;;;;;;;13.57;7.97;;;;;;;;;;5034451;28;20045;-81
2022/05/17 15:07:29;;;;;;;13.95;7.50;;;;;;;;;;5034589;28;20054;-82
2022/05/17 15:10:17;;;;;;;12.43;7.90;;;;;;;;;;5040556;28;20045;-82
2022/05/17 15:13:02;;;;;;;12.52;7.47;;;;;;;;;;5040768;28;20420;-81
2022/05/17 15:15:51;;;;;;;14.50;6.97;;;;;;;;;;5032808;28;20037;-81
2022/05/17 15:18:41;;;;;;;10.95;7.10;;;;;;;;;;5039439;28;20045;-80
2022/05/17 15:21:27;;;;;;;11.43;6.32;;;;;;;;;;5031804;28;20480;-82
2022/05/17 15:24:12;;;;;;;8.52;6.80;;;;;;;;;;5026648;28;20053;-79
2022/05/17 15:26:59;;;;;;;10.48;7.43;;;;;;;;;;5034845;28;20041;-80
2022/05/17 15:29:43;;;;;;;8.52;6.72;;;;;;;;;;5034174;28;20041;-82
2022/05/17 15:32:30;;;;;;;9.82;7.47;;;;;;;;;;5033475;28;20041;-81
2022/05/17 15:35:19;;;;;;;8.55;7.50;;;;;;;;;;5038262;28;20500;-80
2022/05/17 15:38:06;;;;;;;10.38;6.97;;;;;;;;;;5021316;28;20053;-82
2022/05/17 15:40:55;;;;;;;10.10;6.90;;;;;;;;;;5037677;28;20049;-80
2022/05/17 15:43:48;;;;;;;8.40;5.70;;;;;;;;;;5031488;28;20041;-82
2022/05/17 15:55:57;;;;;;;7.10;6.18;;;;;;;;;;5033763;28;20097;-81
2022/05/17 15:58:45;;;;;;;9.23;6.47;;;;;;;;;;5040051;28;20049;-82
2022/05/17 16:01:31;;;;;;;9.60;6.60;;;;;;;;;;5033647;28;20389;-82
2022/05/17 16:10:32;;;;;;;10.27;7.00;;;;;;;;;;5040063;28;20075;-81
2022/05/17 16:13:18;;;;;;;12.07;8.32;;;;;;;;;;5032634;28;20392;-79
2022/05/17 16:16:03;;;;;;;16.42;7.60;;;;;;;;;;5039902;28;20041;-80
2022/05/17 16:18:55;;;;;;;13.88;6.38;;;;;;;;;;5032849;28;20053;-82
2022/05/17 16:21:43;;;;;;;17.85;6.78;;;;;;;;;;5031721;28;20461;-82
2022/05/17 16:24:28;;;;;;;11.10;6.18;;;;;;;;;;5031011;28;20053;-80
2022/05/17 16:27:14;;;;;;;8.85;6.50;;;;;;;;;;5031428;28;20042;-80
2022/05/17 16:29:59;;;;;;;8.48;6.28;;;;;;;;;;5029402;28;20525;-81
2022/05/17 16:32:48;;;;;;;8.10;6.47;;;;;;;;;;5036882;28;20049;-82
2022/05/17 16:35:37;;;;;;;9.27;6.75;;;;;;;;;;5030444;28;20461;-82
2022/05/17 16:38:23;;;;;;;9.23;6.63;;;;;;;;;;5013557;28;20050;-81
2022/05/17 16:41:12;;;;;;;22.52;7.03;;;;;;;;;;5012992;28;20058;-80
2022/05/17 16:43:58;;;;;;;11.70;7.90;;;;;;;;;;5013450;28;20038;-82
2022/05/17 16:46:44;;;;;;;13.52;7.65;;;;;;;;;;5019668;28;20050;-83
2022/05/17 16:49:29;;;;;;;19.30;9.00;;;;;;;;;;5024124;28;20049;-83
2022/05/17 16:52:15;;;;;;;11.93;7.93;;;;;;;;;;5039490;28;20407;-80
2022/05/17 16:55:01;;;;;;;15.77;8.00;;;;;;;;;;5032627;28;20037;-80
2022/05/17 16:57:49;;;;;;;13.93;7.57;;;;;;;;;;5039425;28;20050;-81
2022/05/17 17:00:39;;;;;;;10.55;7.20;;;;;;;;;;5042281;28;20049;-80
2022/05/17 17:03:23;;;;;;;13.18;7.70;;;;;;;;;;5043269;28;20396;-82
2022/05/17 17:06:18;;;;;;;13.93;7.80;;;;;;;;;;5035177;28;20049;-83
2022/05/17 17:09:05;;;;;;;10.95;7.88;;;;;;;;;;5035857;28;20041;-82
2022/05/17 17:11:50;;;;;;;12.90;7.90;;;;;;;;;;5036581;28;20057;-81
2022/05/17 17:14:35;;;;;;;14.40;8.02;;;;;;;;;;5042564;28;20377;-81
2022/05/17 17:17:21;;;;;;;11.13;8.30;;;;;;;;;;5036457;28;20400;-81
2022/05/17 17:20:09;;;;;;;13.30;8.32;;;;;;;;;;5036173;28;20045;-79
2022/05/17 17:22:55;;;;;;;10.27;8.80;;;;;;;;;;5038396;28;20045;-79
2022/05/17 17:25:40;;;;;;;13.07;9.63;;;;;;;;;;5036463;28;20045;-81
2022/05/17 17:28:25;;;;;;;13.90;9.68;;;;;;;;;;5041544;28;20045;-82
2022/05/17 17:31:12;;;;;;;14.40;9.43;;;;;;;;;;5033596;28;20400;-82
2022/05/17 17:37:23;;;;;;;15.40;9.10;;;;;;;;;;5041033;28;20053;-82
2022/05/17 17:40:08;;;;;;;13.05;9.68;;;;;;;;;;5039193;28;20053;-80
2022/05/17 17:42:54;;;;;;;15.63;8.98;;;;;;;;;;5039271;28;20037;-81
2022/05/17 17:45:43;;;;;;;14.80;9.00;;;;;;;;;;5033336;28;20053;-81